Time;durP1;ratioP1;P1;durP2;ratioP2;P2;SDS_P1;SDS_P2;PMS_P1;PMS_P2;Temp;Humidity;BMP_temperature;BMP_pressure;BME280_temperature;BME280_humidity;BME280_pressure;Samples;Min_cycle;Max_cycle;Signal;HPM_P1;HPM_P2
2022/12/03 00:01:31;;;;;;;3.00;2.90;;;17.40;70.80;;;;;;5124250;27;43453;-74
2022/12/03 00:03:59;;;;;;;2.93;2.83;;;17.40;71.10;;;;;;5117708;27;44063;-76
2022/12/03 00:06:28;;;;;;;2.83;2.77;;;17.50;71.00;;;;;;5111994;27;43596;-73
2022/12/03 00:09:03;;;;;;;3.13;3.03;;;17.60;70.60;;;;;;5125547;27;43541;-75
2022/12/03 00:11:31;;;;;;;2.93;2.83;;;17.60;70.00;;;;;;5125829;27;43980;-74
2022/12/03 00:13:59;;;;;;;2.60;2.60;;;17.60;69.90;;;;;;5121803;27;43552;-73
2022/12/03 00:16:27;;;;;;;2.90;2.80;;;17.60;70.00;;;;;;5120625;27;43842;-75
2022/12/03 00:18:55;;;;;;;3.00;2.80;;;17.60;70.40;;;;;;5114952;27;43527;-74
2022/12/03 00:21:23;;;;;;;2.90;2.70;;;17.60;70.30;;;;;;5123589;27;43761;-75
2022/12/03 00:23:51;;;;;;;2.73;2.73;;;17.50;70.20;;;;;;5123666;27;43801;-73
2022/12/03 00:26:21;;;;;;;2.77;2.77;;;17.50;70.30;;;;;;5125819;27;43833;-76
2022/12/03 00:28:49;;;;;;;2.70;2.53;;;17.50;70.30;;;;;;5119103;27;43479;-76
2022/12/03 00:31:17;;;;;;;3.17;3.00;;;17.50;70.50;;;;;;5116043;27;43493;-73
2022/12/03 00:33:45;;;;;;;2.80;2.70;;;17.40;70.60;;;;;;5118438;27;43852;-75
2022/12/03 00:36:13;;;;;;;2.50;2.50;;;17.40;70.60;;;;;;5121481;27;43994;-73
2022/12/03 00:38:41;;;;;;;3.13;3.00;;;17.40;70.60;;;;;;5117936;27;44749;-74
2022/12/03 00:41:08;;;;;;;2.47;2.47;;;17.40;70.60;;;;;;5119337;27;43408;-75
2022/12/03 00:43:38;;;;;;;3.00;2.90;;;17.40;70.60;;;;;;5124496;27;44002;-74
2022/12/03 00:46:06;;;;;;;2.80;2.70;;;17.40;70.70;;;;;;5119577;27;45849;-76
2022/12/03 00:48:34;;;;;;;2.60;2.60;;;17.40;70.80;;;;;;5113744;27;43844;-74
2022/12/03 00:51:02;;;;;;;2.90;2.83;;;17.40;71.00;;;;;;5124604;27;43436;-73
2022/12/03 00:53:30;;;;;;;3.40;3.30;;;17.50;70.80;;;;;;5121076;27;43505;-75
2022/12/03 00:56:00;;;;;;;2.50;2.50;;;17.50;70.30;;;;;;5119828;27;45677;-73
2022/12/03 00:58:28;;;;;;;2.70;2.60;;;17.60;70.20;;;;;;5099925;27;43706;-75
2022/12/03 01:00:57;;;;;;;2.77;2.67;;;17.50;70.20;;;;;;5105215;27;43833;-75
2022/12/03 01:03:25;;;;;;;2.73;2.63;;;17.50;70.30;;;;;;5103285;27;44650;-72
2022/12/03 01:05:53;;;;;;;2.80;2.70;;;17.50;70.50;;;;;;5104204;27;43858;-75
2022/12/03 01:08:21;;;;;;;2.70;2.70;;;17.50;70.40;;;;;;5105016;27;44550;-73
2022/12/03 01:10:49;;;;;;;2.40;2.40;;;17.50;70.30;;;;;;5106973;27;44062;-74
2022/12/03 01:13:18;;;;;;;2.30;2.30;;;17.40;70.40;;;;;;5106327;27;43627;-73
2022/12/03 01:15:47;;;;;;;2.50;2.50;;;17.50;70.60;;;;;;5097918;27;44026;-74
2022/12/03 01:18:16;;;;;;;2.40;2.40;;;17.40;70.60;;;;;;5104806;27;45130;-76
2022/12/03 01:20:44;;;;;;;2.67;2.57;;;17.40;71.40;;;;;;5095667;27;43529;-74
2022/12/03 01:23:13;;;;;;;2.47;2.47;;;17.40;70.60;;;;;;5109897;27;43425;-73
2022/12/03 01:25:41;;;;;;;2.37;2.37;;;17.40;70.60;;;;;;5101488;27;43644;-74
2022/12/03 01:28:09;;;;;;;2.30;2.30;;;17.40;70.60;;;;;;5101021;27;43514;-72
2022/12/03 01:32:15;;;;;;;2.50;2.50;;;17.40;70.60;;;;;;5101545;27;44096;-75
2022/12/03 01:33:26;;;;;;;2.70;2.60;;;17.40;70.70;;;;;;5096924;27;43728;-73
2022/12/03 01:35:54;;;;;;;2.50;2.47;;;17.40;71.00;;;;;;5107489;27;43859;-74
2022/12/03 01:38:21;;;;;;;2.53;2.53;;;17.50;70.90;;;;;;5099668;27;43448;-73
2022/12/03 01:40:50;;;;;;;2.60;2.60;;;17.60;70.60;;;;;;5101776;27;43488;-74
2022/12/03 01:43:17;;;;;;;2.40;2.40;;;17.60;70.00;;;;;;5097047;27;43713;-74
2022/12/03 01:45:45;;;;;;;2.60;2.60;;;17.60;69.60;;;;;;5098805;27;44041;-73
2022/12/03 01:48:14;;;;;;;2.57;2.50;;;17.60;69.70;;;;;;5109964;27;43807;-76
2022/12/03 01:50:43;;;;;;;2.50;2.50;;;17.60;70.20;;;;;;5103548;27;43414;-76
2022/12/03 01:53:13;;;;;;;2.33;2.33;;;17.60;70.00;;;;;;5099455;27;43565;-75
2022/12/03 01:55:42;;;;;;;2.30;2.30;;;17.60;70.00;;;;;;5097370;27;46131;-75
2022/12/03 01:58:15;;;;;;;2.40;2.40;;;17.50;70.00;;;;;;5098205;27;44933;-76
2022/12/03 02:00:43;;;;;;;2.70;2.70;;;17.50;70.10;;;;;;5102599;27;43464;-74
2022/12/03 02:03:12;;;;;;;2.23;2.23;;;17.50;70.20;;;;;;5090299;27;44093;-76
2022/12/03 02:05:40;;;;;;;2.40;2.40;;;17.50;70.60;;;;;;5107612;27;45942;-76
2022/12/03 02:08:31;;;;;;;2.47;2.47;;;17.50;70.50;;;;;;5099552;27;43508;-74
2022/12/03 02:11:00;;;;;;;2.40;2.40;;;17.50;70.50;;;;;;5096868;27;43485;-74
2022/12/03 02:13:28;;;;;;;2.30;2.30;;;17.40;70.80;;;;;;5105119;27;43521;-73
2022/12/03 02:15:56;;;;;;;2.50;2.50;;;17.40;70.40;;;;;;5104786;27;45820;-75
2022/12/03 02:18:24;;;;;;;2.40;2.40;;;17.40;70.50;;;;;;5106592;27;43365;-75
2022/12/03 02:20:56;;;;;;;2.00;2.00;;;17.40;70.80;;;;;;5109005;27;44735;-74
2022/12/03 02:23:27;;;;;;;2.30;2.30;;;17.40;70.60;;;;;;5112575;27;43507;-75
2022/12/03 02:25:56;;;;;;;2.30;2.30;;;17.40;70.60;;;;;;5100947;27;44049;-74
2022/12/03 02:28:24;;;;;;;2.20;2.20;;;17.40;70.60;;;;;;5109115;27;43476;-75
2022/12/03 02:30:52;;;;;;;2.30;2.30;;;17.40;70.50;;;;;;5110204;27;43501;-73
2022/12/03 02:33:20;;;;;;;1.90;1.90;;;17.40;70.60;;;;;;5106305;27;43853;-75
2022/12/03 02:35:48;;;;;;;2.20;2.20;;;17.30;70.70;;;;;;5111929;27;45503;-74
2022/12/03 02:38:17;;;;;;;2.30;2.30;;;17.40;71.00;;;;;;5104515;27;43528;-73
2022/12/03 02:40:46;;;;;;;2.20;2.20;;;17.40;70.70;;;;;;5111083;27;44004;-75
2022/12/03 02:43:15;;;;;;;2.10;2.10;;;17.60;70.30;;;;;;5104276;27;43520;-75
2022/12/03 02:45:44;;;;;;;2.13;2.13;;;17.60;69.80;;;;;;5095592;27;45646;-76
2022/12/03 02:48:13;;;;;;;2.00;2.00;;;17.60;69.70;;;;;;5114387;27;44137;-75
2022/12/03 02:50:42;;;;;;;2.20;2.20;;;17.60;70.00;;;;;;5100052;27;43482;-71
2022/12/03 02:53:13;;;;;;;2.10;2.10;;;17.50;70.00;;;;;;5100795;27;43604;-75
2022/12/03 02:55:41;;;;;;;2.30;2.30;;;17.60;70.00;;;;;;5111610;27;44142;-76
2022/12/03 02:58:09;;;;;;;2.00;2.00;;;17.50;70.00;;;;;;5102797;27;44029;-71
2022/12/03 03:00:38;;;;;;;2.00;2.00;;;17.50;70.00;;;;;;5104917;27;44314;-70
2022/12/03 03:03:06;;;;;;;2.10;2.10;;;17.40;70.10;;;;;;5100798;27;43463;-76
2022/12/03 03:05:34;;;;;;;2.37;2.37;;;17.40;70.30;;;;;;5100088;27;43945;-74
2022/12/03 03:08:03;;;;;;;2.20;2.20;;;17.40;70.50;;;;;;5102817;27;43564;-75
2022/12/03 03:10:31;;;;;;;2.17;2.17;;;17.40;70.40;;;;;;5099279;27;43435;-76
2022/12/03 03:12:59;;;;;;;2.00;2.00;;;17.40;70.40;;;;;;5098166;27;43433;-76
2022/12/03 03:15:27;;;;;;;2.07;2.07;;;17.40;70.40;;;;;;5101621;27;43907;-72
2022/12/03 03:17:56;;;;;;;2.10;2.10;;;17.40;70.40;;;;;;5095650;27;43429;-75
2022/12/03 03:20:24;;;;;;;2.00;2.00;;;17.30;70.50;;;;;;5102820;27;43478;-77
2022/12/03 03:22:52;;;;;;;1.73;1.73;;;17.30;70.80;;;;;;5109362;27;43937;-73
2022/12/03 03:25:21;;;;;;;2.30;2.20;;;17.40;70.70;;;;;;5094434;27;45603;-75
2022/12/03 03:27:49;;;;;;;1.90;1.90;;;17.50;70.40;;;;;;5101178;27;43420;-73
2022/12/03 03:30:17;;;;;;;1.90;1.90;;;17.60;70.00;;;;;;5108857;27;43497;-74
2022/12/03 03:32:45;;;;;;;2.20;2.20;;;17.50;69.80;;;;;;5099354;27;44531;-73
2022/12/03 03:35:14;;;;;;;2.27;2.27;;;17.50;69.90;;;;;;5099366;27;45029;-72
2022/12/03 03:37:42;;;;;;;2.30;2.30;;;17.50;70.20;;;;;;5100036;27;43796;-73
2022/12/03 03:40:10;;;;;;;2.00;2.00;;;17.50;70.10;;;;;;5101802;27;43460;-73
2022/12/03 03:42:38;;;;;;;1.73;1.73;;;17.50;70.10;;;;;;5107837;27;43519;-75
2022/12/03 03:45:07;;;;;;;2.40;2.30;;;17.50;70.20;;;;;;5107466;27;43869;-76
2022/12/03 03:47:35;;;;;;;2.00;2.00;;;17.40;70.10;;;;;;5103580;27;44111;-76
2022/12/03 03:50:03;;;;;;;2.00;2.00;;;17.40;70.30;;;;;;5103878;27;43483;-76
2022/12/03 03:52:33;;;;;;;2.03;2.03;;;17.40;70.50;;;;;;5109055;27;43656;-75
2022/12/03 03:55:01;;;;;;;1.90;1.90;;;17.40;70.50;;;;;;5100813;27;43847;-73
2022/12/03 03:57:29;;;;;;;2.13;2.13;;;17.40;70.50;;;;;;5097250;27;43501;-75
2022/12/03 03:59:57;;;;;;;1.90;1.90;;;17.40;70.50;;;;;;5114577;27;43484;-75
2022/12/03 04:02:26;;;;;;;2.03;2.03;;;17.40;70.50;;;;;;5100338;27;43453;-75
2022/12/03 04:04:54;;;;;;;2.00;2.00;;;17.30;70.50;;;;;;5100626;27;45869;-76
2022/12/03 04:07:22;;;;;;;2.00;2.00;;;17.30;70.60;;;;;;5104312;27;43442;-73
2022/12/03 04:09:52;;;;;;;1.90;1.90;;;17.30;70.90;;;;;;5105866;27;44251;-72
2022/12/03 04:15:06;;;;;;;2.00;2.00;;;17.50;70.30;;;;;;5104944;27;45726;-77
2022/12/03 04:17:34;;;;;;;1.83;1.83;;;17.60;69.90;;;;;;5091354;27;43778;-73
2022/12/03 04:20:02;;;;;;;2.00;2.00;;;17.50;69.80;;;;;;5112274;27;43413;-73
2022/12/03 04:30:47;;;;;;;2.13;2.13;;;17.40;70.10;;;;;;5102243;27;44475;-74
2022/12/03 04:36:01;;;;;;;2.00;2.00;;;17.40;70.40;;;;;;5096322;27;43895;-74
2022/12/03 04:38:29;;;;;;;2.20;2.20;;;17.30;70.60;;;;;;5108368;27;43579;-71
2022/12/03 04:41:02;;;;;;;2.17;2.17;;;17.30;70.50;;;;;;5106007;27;45181;-72
2022/12/03 04:43:31;;;;;;;2.07;2.07;;;17.30;70.60;;;;;;5109886;27;44202;-73
2022/12/03 04:45:59;;;;;;;2.10;2.10;;;17.30;70.50;;;;;;5107810;27;43617;-73
2022/12/03 04:48:27;;;;;;;2.10;2.10;;;17.30;70.50;;;;;;5118991;27;43379;-74
2022/12/03 04:50:55;;;;;;;2.20;2.20;;;17.30;70.60;;;;;;5101491;27;44048;-74
2022/12/03 04:53:23;;;;;;;2.30;2.30;;;17.30;70.60;;;;;;5105821;27;43485;-76
2022/12/03 04:55:50;;;;;;;2.37;2.37;;;17.30;70.90;;;;;;5104526;27;44007;-76
2022/12/03 04:58:20;;;;;;;2.20;2.20;;;17.40;70.80;;;;;;5101843;27;44008;-73
2022/12/03 05:00:48;;;;;;;2.10;2.10;;;17.50;70.30;;;;;;5096422;27;45171;-74
2022/12/03 05:03:16;;;;;;;1.97;1.97;;;17.50;70.00;;;;;;5108211;27;43418;-76
2022/12/03 05:05:44;;;;;;;2.20;2.20;;;17.50;70.10;;;;;;5102942;27;45892;-70
2022/12/03 05:08:11;;;;;;;2.27;2.27;;;17.40;70.00;;;;;;5106709;27;44322;-75
2022/12/03 05:10:39;;;;;;;2.40;2.40;;;17.40;70.40;;;;;;5101610;27;43457;-75
2022/12/03 05:13:07;;;;;;;2.40;2.40;;;17.40;70.10;;;;;;5098939;27;43621;-73
2022/12/03 05:15:37;;;;;;;2.40;2.40;;;17.40;70.10;;;;;;5096125;27;43851;-75
2022/12/03 05:18:05;;;;;;;2.37;2.37;;;17.40;70.10;;;;;;5104065;27;43674;-74
2022/12/03 05:20:41;;;;;;;2.07;2.07;;;17.40;70.20;;;;;;5102356;27;43485;-73
2022/12/03 05:23:18;;;;;;;2.43;2.43;;;17.40;70.20;;;;;;5096364;27;43474;-77
2022/12/03 05:25:46;;;;;;;2.70;2.70;;;17.40;70.60;;;;;;5103586;27;46225;-75
2022/12/03 05:28:14;;;;;;;2.50;2.50;;;17.40;70.60;;;;;;5093822;27;44633;-71
2022/12/03 05:30:43;;;;;;;2.47;2.47;;;17.50;70.20;;;;;;5098349;27;43489;-72
2022/12/03 05:33:11;;;;;;;2.33;2.33;;;17.50;69.90;;;;;;5109470;27;44135;-73
2022/12/03 05:35:39;;;;;;;2.53;2.53;;;17.50;69.90;;;;;;5101667;27;44094;-73
2022/12/03 05:38:07;;;;;;;2.37;2.37;;;17.50;70.00;;;;;;5103190;27;43535;-74
2022/12/03 05:40:35;;;;;;;2.23;2.23;;;17.40;70.00;;;;;;5110989;27;43474;-72
2022/12/03 05:43:02;;;;;;;2.80;2.80;;;17.40;70.20;;;;;;5102344;27;43520;-76
2022/12/03 05:45:31;;;;;;;2.40;2.40;;;17.40;70.10;;;;;;5110153;27;43559;-75
2022/12/03 05:48:00;;;;;;;2.27;2.27;;;17.40;70.20;;;;;;5097937;27;44570;-74
2022/12/03 05:50:29;;;;;;;2.40;2.40;;;17.40;70.10;;;;;;5108003;27;44139;-75
2022/12/03 05:52:57;;;;;;;2.37;2.37;;;17.40;70.20;;;;;;5104119;27;43558;-73
2022/12/03 05:55:25;;;;;;;2.80;2.70;;;17.40;70.40;;;;;;5090885;27;43966;-72
2022/12/03 05:57:53;;;;;;;2.70;2.70;;;17.30;70.60;;;;;;5111564;27;43453;-73
2022/12/03 06:00:22;;;;;;;2.47;2.47;;;17.40;70.60;;;;;;5093175;27;43403;-73
2022/12/03 06:02:50;;;;;;;2.43;2.43;;;17.50;70.30;;;;;;5091090;27;44497;-74
2022/12/03 06:05:20;;;;;;;2.50;2.50;;;17.50;69.70;;;;;;5096468;27;43611;-75
2022/12/03 06:07:48;;;;;;;2.80;2.70;;;17.60;69.70;;;;;;5106280;27;43398;-74
2022/12/03 06:10:17;;;;;;;2.83;2.73;;;17.50;69.80;;;;;;5105140;27;43394;-72
2022/12/03 06:12:45;;;;;;;2.27;2.27;;;17.50;70.10;;;;;;5114110;27;43432;-73
2022/12/03 06:15:14;;;;;;;2.70;2.70;;;17.50;70.00;;;;;;5097618;27;43914;-74
2022/12/03 06:17:42;;;;;;;2.50;2.50;;;17.50;70.00;;;;;;5097358;27;43967;-75
2022/12/03 06:20:11;;;;;;;2.60;2.60;;;17.40;69.90;;;;;;5101539;27;43602;-75
2022/12/03 06:22:40;;;;;;;2.60;2.60;;;17.40;70.00;;;;;;5110326;27;43532;-73
2022/12/03 06:25:08;;;;;;;2.60;2.60;;;17.40;70.10;;;;;;5103232;27;46073;-75
2022/12/03 06:27:36;;;;;;;2.77;2.77;;;17.40;70.40;;;;;;5104751;27;43539;-74
2022/12/03 06:30:06;;;;;;;2.60;2.60;;;17.30;70.30;;;;;;5090382;27;43956;-73
2022/12/03 06:32:34;;;;;;;2.43;2.40;;;17.30;70.20;;;;;;5102144;27;43705;-75
2022/12/03 06:35:02;;;;;;;2.60;2.60;;;17.40;70.40;;;;;;5109292;27;45733;-76
2022/12/03 06:37:30;;;;;;;2.90;2.80;;;17.30;70.30;;;;;;5097564;27;43448;-75
2022/12/03 06:39:59;;;;;;;2.70;2.70;;;17.30;70.30;;;;;;5097903;27;43559;-73
2022/12/03 06:42:27;;;;;;;2.80;2.80;;;17.30;70.40;;;;;;5108843;27;43545;-74
2022/12/03 06:44:55;;;;;;;2.90;2.80;;;17.30;70.50;;;;;;5113588;27;43870;-74
2022/12/03 06:47:24;;;;;;;2.60;2.60;;;17.30;70.30;;;;;;5097521;27;44493;-74
2022/12/03 06:49:52;;;;;;;2.70;2.70;;;17.30;70.30;;;;;;5107326;27;43939;-73
2022/12/03 06:52:19;;;;;;;2.80;2.80;;;17.40;70.40;;;;;;5105613;27;43634;-75
2022/12/03 06:54:47;;;;;;;2.97;2.87;;;17.40;70.40;;;;;;5109072;27;45816;-75
2022/12/03 06:57:17;;;;;;;2.73;2.73;;;17.30;70.30;;;;;;5113542;27;43522;-71
2022/12/03 06:59:44;;;;;;;2.90;2.80;;;17.30;70.60;;;;;;5099721;27;43510;-75
2022/12/03 07:02:12;;;;;;;3.00;2.90;;;17.40;70.50;;;;;;5108132;27;43617;-75
2022/12/03 07:04:40;;;;;;;2.93;2.83;;;17.50;70.10;;;;;;5107330;27;44003;-75
2022/12/03 07:07:13;;;;;;;3.13;3.03;;;17.60;69.60;;;;;;5093052;27;44582;-75
2022/12/03 07:09:41;;;;;;;2.90;2.80;;;17.60;69.40;;;;;;5101845;27;43453;-74
2022/12/03 07:12:09;;;;;;;2.93;2.93;;;17.60;69.50;;;;;;5095725;27;43600;-73
2022/12/03 07:14:39;;;;;;;2.93;2.83;;;17.50;69.80;;;;;;5094255;27;44180;-73
2022/12/03 07:17:07;;;;;;;2.90;2.90;;;17.50;69.70;;;;;;5101749;27;44144;-76
2022/12/03 07:19:35;;;;;;;2.87;2.87;;;17.50;69.80;;;;;;5107009;27;43440;-72
2022/12/03 07:22:02;;;;;;;2.70;2.60;;;17.50;69.80;;;;;;5096808;27;43497;-73
2022/12/03 07:24:30;;;;;;;2.87;2.77;;;17.50;70.00;;;;;;5108412;27;44905;-75
2022/12/03 07:26:58;;;;;;;2.70;2.70;;;17.40;70.00;;;;;;5112978;27;43569;-72
2022/12/03 07:29:26;;;;;;;3.03;2.93;;;17.40;70.40;;;;;;5096897;27;43476;-74
2022/12/03 07:31:56;;;;;;;3.27;3.07;;;17.30;70.20;;;;;;5100242;27;43446;-73
2022/12/03 07:34:24;;;;;;;3.00;2.90;;;17.30;70.30;;;;;;5103975;27;45757;-75
2022/12/03 07:36:51;;;;;;;3.03;2.93;;;17.30;70.20;;;;;;5099039;27;43491;-71
2022/12/03 07:39:20;;;;;;;2.87;2.87;;;17.30;70.20;;;;;;5102977;27;44045;-74
2022/12/03 07:41:48;;;;;;;3.03;2.93;;;17.30;70.30;;;;;;5107517;27;43509;-73
2022/12/03 07:44:16;;;;;;;3.20;3.10;;;17.30;70.50;;;;;;5100350;27;43996;-73
2022/12/03 07:46:44;;;;;;;3.23;3.13;;;17.30;70.70;;;;;;5110599;27;43565;-73
2022/12/03 07:49:13;;;;;;;3.23;3.13;;;17.40;70.50;;;;;;5106031;27;43936;-72
2022/12/03 07:51:41;;;;;;;2.93;2.90;;;17.50;70.10;;;;;;5099793;27;43480;-76
2022/12/03 07:54:09;;;;;;;3.10;3.00;;;17.50;69.80;;;;;;5106491;27;45865;-77
2022/12/03 07:56:37;;;;;;;2.60;2.60;;;17.40;69.70;;;;;;5110204;27;43453;-74
2022/12/03 07:59:05;;;;;;;3.20;3.10;;;17.40;69.90;;;;;;5097943;27;43296;-75
2022/12/03 08:01:33;;;;;;;3.10;3.00;;;17.40;70.10;;;;;;5112053;27;43513;-76
2022/12/03 08:04:02;;;;;;;3.13;3.03;;;17.40;70.00;;;;;;5093996;27;45593;-72
2022/12/03 08:06:31;;;;;;;2.70;2.70;;;17.40;70.00;;;;;;5103331;27;43620;-77
2022/12/03 08:08:59;;;;;;;3.43;3.33;;;17.40;70.10;;;;;;5110610;27;43509;-76
2022/12/03 08:11:28;;;;;;;2.77;2.77;;;17.40;70.20;;;;;;5096011;27;43442;-74
2022/12/03 08:13:55;;;;;;;3.30;3.20;;;17.40;70.30;;;;;;5103429;27;43842;-76
2022/12/03 08:16:39;;;;;;;2.97;2.90;;;17.30;70.30;;;;;;5067700;27;44112;-73
2022/12/03 08:19:09;;;;;;;2.80;2.80;;;17.30;70.30;;;;;;5097119;27;43449;-76
2022/12/03 08:21:38;;;;;;;2.90;2.80;;;17.30;70.30;;;;;;5106157;27;43451;-76
2022/12/03 08:24:13;;;;;;;3.20;3.10;;;17.30;70.30;;;;;;5100041;27;43607;-74
2022/12/03 08:26:44;;;;;;;2.93;2.83;;;17.30;70.30;;;;;;5100976;27;43585;-73
2022/12/03 08:29:13;;;;;;;3.13;3.03;;;17.30;70.30;;;;;;5102445;27;43959;-74
2022/12/03 08:31:41;;;;;;;3.67;3.47;;;17.30;70.70;;;;;;5101109;27;44026;-76
2022/12/03 08:34:17;;;;;;;3.10;3.10;;;17.30;70.60;;;;;;5099675;27;43594;-73
2022/12/03 08:36:46;;;;;;;3.40;3.30;;;17.50;70.30;;;;;;5114322;27;44492;-71
2022/12/03 08:39:28;;;;;;;3.10;3.00;;;17.50;69.70;;;;;;5093141;27;43411;-73
2022/12/03 08:44:43;;;;;;;3.23;3.13;;;17.50;69.60;;;;;;5095504;27;43850;-74
2022/12/03 08:47:14;;;;;;;3.10;3.00;;;17.50;70.10;;;;;;5093967;27;44675;-73
2022/12/03 08:49:42;;;;;;;3.10;3.00;;;17.50;69.90;;;;;;5096668;27;44013;-72
2022/12/03 08:52:15;;;;;;;2.67;2.67;;;17.50;69.90;;;;;;5105984;27;43605;-73
2022/12/03 08:54:43;;;;;;;3.20;3.10;;;17.40;69.80;;;;;;5102110;27;43758;-75
2022/12/03 08:57:23;;;;;;;3.10;3.00;;;17.40;70.00;;;;;;5104060;27;43943;-73
2022/12/03 08:59:51;;;;;;;3.40;3.30;;;17.40;70.10;;;;;;5099439;27;43924;-72
2022/12/03 09:02:23;;;;;;;3.23;3.13;;;17.30;70.30;;;;;;5100142;27;43687;-74
2022/12/03 09:04:53;;;;;;;3.13;3.03;;;17.30;70.20;;;;;;5109104;27;43939;-76
2022/12/03 09:07:23;;;;;;;3.13;3.03;;;17.40;70.30;;;;;;5109120;27;43978;-73
2022/12/03 09:09:51;;;;;;;3.33;3.23;;;17.30;70.20;;;;;;5100971;27;44111;-74
2022/12/03 09:12:19;;;;;;;3.00;2.90;;;17.30;70.30;;;;;;5097235;27;43468;-74
2022/12/03 09:14:47;;;;;;;3.33;3.23;;;17.30;70.30;;;;;;5094317;27;45281;-71
2022/12/03 09:17:16;;;;;;;3.30;3.20;;;17.30;70.60;;;;;;5105212;27;44083;-73
2022/12/03 09:19:44;;;;;;;3.20;3.00;;;17.30;70.50;;;;;;5098820;27;44383;-73
2022/12/03 09:22:14;;;;;;;3.40;3.30;;;17.40;70.10;;;;;;5104315;27;43494;-75
2022/12/03 09:24:43;;;;;;;3.50;3.40;;;17.50;70.00;;;;;;5107149;27;45613;-73
2022/12/03 09:27:11;;;;;;;3.07;2.97;;;17.50;69.80;;;;;;5105295;27;43829;-74
2022/12/03 09:29:39;;;;;;;3.40;3.30;;;17.40;69.80;;;;;;5094422;27;43480;-71
2022/12/03 09:32:07;;;;;;;3.83;3.73;;;17.40;70.10;;;;;;5101640;27;43555;-76
2022/12/03 09:34:39;;;;;;;3.57;3.47;;;17.40;70.80;;;;;;5104651;27;44916;-74
2022/12/03 09:37:07;;;;;;;3.40;3.30;;;17.40;70.10;;;;;;5121983;27;44008;-72
2022/12/03 09:39:35;;;;;;;3.40;3.30;;;17.40;70.10;;;;;;5113761;27;43382;-73
2022/12/03 09:42:05;;;;;;;3.63;3.53;;;17.30;70.00;;;;;;5125865;27;43446;-71
2022/12/03 09:44:33;;;;;;;2.93;2.83;;;17.30;70.20;;;;;;5109138;27;43795;-70
2022/12/03 09:47:01;;;;;;;3.43;3.33;;;17.30;70.30;;;;;;5116384;27;43820;-75
2022/12/03 09:49:30;;;;;;;3.27;3.17;;;17.30;70.30;;;;;;5112855;27;43576;-72
2022/12/03 09:51:58;;;;;;;3.20;3.10;;;17.30;70.30;;;;;;5113413;27;43510;-76
2022/12/03 09:54:27;;;;;;;3.40;3.30;;;17.30;70.20;;;;;;5116769;27;43921;-75
2022/12/03 09:56:55;;;;;;;3.30;3.20;;;17.30;70.30;;;;;;5125832;27;43426;-76
2022/12/03 09:59:26;;;;;;;3.17;3.10;;;17.30;70.30;;;;;;5115013;27;43411;-73
2022/12/03 10:01:54;;;;;;;3.63;3.53;;;17.30;70.40;;;;;;5122903;27;43421;-75
2022/12/03 10:04:22;;;;;;;3.53;3.43;;;17.30;70.70;;;;;;5110136;27;43891;-73
2022/12/03 10:06:50;;;;;;;3.43;3.33;;;17.30;70.50;;;;;;5117904;27;43896;-75
2022/12/03 10:09:27;;;;;;;3.80;3.70;;;17.40;70.10;;;;;;5123962;27;43998;-76
2022/12/03 10:11:55;;;;;;;3.23;3.13;;;17.50;69.60;;;;;;5119971;27;43497;-73
2022/12/03 10:14:24;;;;;;;3.33;3.23;;;17.50;69.50;;;;;;5114271;27;43917;-75
2022/12/03 10:16:52;;;;;;;3.70;3.60;;;17.50;69.50;;;;;;5097719;27;43541;-71
2022/12/03 10:19:22;;;;;;;3.53;3.43;;;17.40;70.00;;;;;;5110229;27;44068;-73
2022/12/03 10:21:50;;;;;;;3.60;3.40;;;17.40;69.60;;;;;;5110198;27;43946;-72
2022/12/03 10:24:20;;;;;;;3.50;3.40;;;17.40;70.40;;;;;;5101020;27;43953;-75
2022/12/03 10:26:51;;;;;;;3.40;3.30;;;17.40;69.80;;;;;;5106468;27;44265;-74
2022/12/03 10:29:20;;;;;;;3.33;3.23;;;17.40;70.60;;;;;;5103753;27;43459;-74
2022/12/03 10:31:55;;;;;;;3.53;3.43;;;17.30;69.90;;;;;;5107251;27;43716;-73
2022/12/03 10:34:29;;;;;;;3.67;3.57;;;17.30;70.20;;;;;;5106204;27;43917;-76
2022/12/03 10:37:09;;;;;;;3.37;3.27;;;17.30;70.00;;;;;;5121501;27;44087;-73
2022/12/03 10:39:52;;;;;;;3.73;3.63;;;17.30;70.10;;;;;;5113429;27;43468;-73
2022/12/03 10:42:23;;;;;;;3.63;3.53;;;17.30;70.10;;;;;;5110138;27;43682;-76
2022/12/03 10:45:07;;;;;;;3.67;3.57;;;17.30;70.10;;;;;;5110554;27;43969;-74
2022/12/03 10:47:37;;;;;;;3.73;3.63;;;17.30;70.10;;;;;;5101632;27;43906;-73
2022/12/03 10:50:06;;;;;;;3.50;3.40;;;17.30;70.30;;;;;;5108956;27;43401;-75
2022/12/03 10:52:34;;;;;;;3.60;3.50;;;17.30;70.10;;;;;;5108963;27;43626;-76
2022/12/03 10:55:02;;;;;;;3.70;3.60;;;17.30;70.20;;;;;;5105005;27;43792;-74
2022/12/03 10:57:30;;;;;;;3.70;3.60;;;17.30;70.10;;;;;;5100515;27;43427;-73
2022/12/03 10:59:58;;;;;;;3.87;3.77;;;17.30;70.10;;;;;;5106330;27;43568;-75
2022/12/03 11:02:26;;;;;;;4.07;3.97;;;17.30;70.20;;;;;;5102659;27;43568;-75
2022/12/03 11:04:55;;;;;;;3.60;3.50;;;17.30;70.70;;;;;;5097410;27;44564;-73
2022/12/03 11:07:24;;;;;;;3.63;3.53;;;17.40;70.60;;;;;;5120965;27;44572;-75
2022/12/03 11:09:54;;;;;;;4.07;3.97;;;17.40;70.10;;;;;;5098312;27;43771;-74
2022/12/03 11:12:23;;;;;;;3.50;3.40;;;17.50;69.50;;;;;;5115423;27;43738;-75
2022/12/03 11:15:08;;;;;;;3.60;3.50;;;17.50;69.20;;;;;;5119679;27;43594;-72
2022/12/03 11:17:46;;;;;;;3.80;3.70;;;17.50;69.30;;;;;;5106842;27;43468;-74
2022/12/03 11:20:50;;;;;;;3.70;3.60;;;17.50;70.00;;;;;;5093601;27;43906;-74
2022/12/03 11:23:35;;;;;;;4.07;3.80;;;17.50;69.60;;;;;;5103124;27;44217;-73
2022/12/03 11:26:03;;;;;;;7.17;4.30;;;17.50;69.70;;;;;;5104882;27;45623;-73
2022/12/03 11:28:32;;;;;;;4.00;3.70;;;17.40;69.50;;;;;;5116256;27;44674;-73
2022/12/03 11:31:01;;;;;;;6.27;3.83;;;17.40;69.40;;;;;;5106505;27;44022;-74
2022/12/03 11:33:29;;;;;;;4.80;4.03;;;17.30;69.30;;;;;;5098019;27;43836;-74
2022/12/03 11:36:14;;;;;;;4.43;4.13;;;17.30;69.70;;;;;;5102635;27;43941;-74
2022/12/03 11:38:56;;;;;;;6.23;4.20;;;17.30;69.40;;;;;;5109654;27;43762;-75
2022/12/03 11:41:26;;;;;;;4.80;4.50;;;17.30;69.50;;;;;;5099057;27;43479;-73
2022/12/03 11:44:28;;;;;;;4.93;4.57;;;17.30;69.50;;;;;;5106220;27;43505;-75
2022/12/03 11:46:57;;;;;;;4.90;4.60;;;17.30;69.50;;;;;;5114341;27;44143;-75
2022/12/03 11:49:33;;;;;;;7.13;4.37;;;17.30;69.60;;;;;;5114560;27;43446;-74
2022/12/03 11:52:04;;;;;;;4.60;4.20;;;17.20;70.00;;;;;;5112902;27;43442;-73
2022/12/03 11:54:34;;;;;;;4.63;4.23;;;17.30;69.80;;;;;;5116279;27;44150;-74
2022/12/03 11:57:02;;;;;;;4.20;4.00;;;17.40;69.30;;;;;;5105459;27;43859;-76
2022/12/03 11:59:30;;;;;;;4.77;4.47;;;17.50;68.80;;;;;;5102807;27;44211;-77
2022/12/03 12:01:58;;;;;;;4.53;4.23;;;17.50;68.80;;;;;;5106891;27;43438;-75
2022/12/03 12:04:29;;;;;;;4.97;4.60;;;17.50;69.00;;;;;;5096874;27;43485;-74
2022/12/03 12:06:57;;;;;;;4.63;4.43;;;17.40;69.20;;;;;;5104703;27;43923;-72
2022/12/03 12:09:49;;;;;;;5.00;4.57;;;17.40;69.00;;;;;;5091433;27;44770;-72
2022/12/03 12:12:21;;;;;;;4.70;4.40;;;17.40;69.00;;;;;;5108378;27;43379;-73
2022/12/03 12:14:50;;;;;;;4.50;4.30;;;17.40;69.10;;;;;;5102313;27;45137;-74
2022/12/03 12:17:32;;;;;;;4.87;4.47;;;17.30;69.10;;;;;;5117916;27;43857;-74
2022/12/03 12:20:20;;;;;;;4.63;4.43;;;17.30;69.30;;;;;;5117606;27;43885;-74
2022/12/03 12:22:48;;;;;;;5.10;4.70;;;17.30;69.40;;;;;;5110115;27;43924;-76
2022/12/03 12:25:37;;;;;;;4.50;4.20;;;17.30;69.30;;;;;;5115488;27;43525;-74
2022/12/03 12:28:05;;;;;;;4.80;4.40;;;17.30;69.30;;;;;;5112304;27;45911;-76
2022/12/03 12:30:33;;;;;;;4.83;4.63;;;17.30;69.40;;;;;;5115592;27;43468;-75
2022/12/03 12:33:18;;;;;;;4.97;4.50;;;17.30;69.40;;;;;;5109094;27;43982;-73
2022/12/03 12:35:46;;;;;;;4.63;4.43;;;17.30;69.40;;;;;;5112346;27;43511;-75
2022/12/03 12:38:16;;;;;;;4.23;4.03;;;17.20;69.40;;;;;;5120595;27;43909;-75
2022/12/03 12:40:47;;;;;;;4.27;3.97;;;17.30;69.40;;;;;;5119963;27;43472;-75
2022/12/03 12:43:21;;;;;;;4.63;4.33;;;17.30;69.30;;;;;;5111303;27;43468;-74
2022/12/03 12:45:52;;;;;;;4.93;4.70;;;17.20;69.20;;;;;;5119111;27;43862;-73
2022/12/03 12:48:25;;;;;;;4.50;4.33;;;17.30;69.40;;;;;;5120804;27;44973;-74
2022/12/03 12:51:00;;;;;;;4.60;4.30;;;17.30;69.30;;;;;;5115304;27;43545;-74
2022/12/03 12:53:30;;;;;;;4.83;4.53;;;17.30;69.70;;;;;;5125254;27;43469;-75
2022/12/03 12:56:00;;;;;;;5.13;4.83;;;17.30;69.50;;;;;;5124373;27;43486;-75
2022/12/03 12:58:30;;;;;;;4.47;4.27;;;17.40;69.10;;;;;;5125931;27;43936;-74
2022/12/03 13:00:59;;;;;;;4.50;4.30;;;17.50;68.50;;;;;;5125885;27;43364;-76
2022/12/03 13:03:29;;;;;;;4.43;4.20;;;17.50;68.30;;;;;;5112072;27;43387;-77
2022/12/03 13:05:57;;;;;;;4.70;4.50;;;17.50;68.40;;;;;;5113446;27;43574;-77
2022/12/03 13:08:26;;;;;;;4.83;4.63;;;17.40;68.80;;;;;;5109520;27;43838;-75
2022/12/03 13:10:54;;;;;;;4.83;4.63;;;17.40;68.50;;;;;;5117658;27;43538;-73
2022/12/03 13:13:30;;;;;;;4.70;4.50;;;17.40;68.50;;;;;;5118808;27;43916;-74
2022/12/03 13:15:59;;;;;;;5.13;4.83;;;17.40;68.60;;;;;;5123322;27;43915;-75
2022/12/03 13:18:31;;;;;;;4.93;4.73;;;17.40;68.70;;;;;;5112625;27;43958;-76